createdAt,value
2022-12-07T00:01:48.178Z,4.40
2022-12-07T00:04:20.146Z,4.30
2022-12-07T00:06:53.855Z,4.30
2022-12-07T00:09:22.230Z,4.30
2022-12-07T00:11:52.818Z,4.30
2022-12-07T00:14:21.960Z,4.30
2022-12-07T00:16:53.075Z,4.30
2022-12-07T00:19:22.679Z,4.30
2022-12-07T00:21:50.863Z,4.30
2022-12-07T00:24:19.178Z,4.20
2022-12-07T00:26:47.354Z,4.20
2022-12-07T00:29:19.287Z,4.20
2022-12-07T00:31:48.092Z,4.20
2022-12-07T00:34:19.498Z,4.10
2022-12-07T00:36:50.245Z,4.10
2022-12-07T00:39:18.977Z,4.10
2022-12-07T00:41:47.326Z,4.10
2022-12-07T00:44:15.493Z,4.10
2022-12-07T00:46:43.582Z,4.00
2022-12-07T00:49:11.674Z,4.00
2022-12-07T00:51:39.988Z,4.00
2022-12-07T00:54:09.655Z,4.00
2022-12-07T00:56:37.801Z,4.00
2022-12-07T00:59:06.464Z,4.00
2022-12-07T01:01:38.569Z,4.00
2022-12-07T01:04:07.555Z,4.00
2022-12-07T01:06:36.053Z,4.00
2022-12-07T01:09:05.728Z,4.00
2022-12-07T01:11:35.348Z,4.00
2022-12-07T01:14:03.765Z,4.00
2022-12-07T01:16:34.462Z,4.00
2022-12-07T01:19:05.599Z,4.00
2022-12-07T01:21:38.375Z,4.00
2022-12-07T01:24:09.645Z,4.00
2022-12-07T01:26:39.317Z,4.00
2022-12-07T01:29:07.673Z,4.10
2022-12-07T01:31:36.036Z,4.10
2022-12-07T01:34:04.345Z,4.00
2022-12-07T01:36:36.831Z,4.00
2022-12-07T01:39:07.990Z,4.10
2022-12-07T01:41:41.350Z,4.00
2022-12-07T01:44:23.566Z,4.10
2022-12-07T01:46:54.386Z,4.10
2022-12-07T01:49:33.252Z,4.10
2022-12-07T01:52:15.679Z,4.00
2022-12-07T01:54:46.225Z,4.00
2022-12-07T01:57:17.797Z,4.10
2022-12-07T01:59:49.354Z,4.00
2022-12-07T02:02:25.061Z,4.00
2022-12-07T02:04:56.140Z,4.00
2022-12-07T02:07:26.051Z,4.00
2022-12-07T02:09:54.224Z,4.00
2022-12-07T02:12:26.873Z,4.00
2022-12-07T02:14:55.235Z,4.00
2022-12-07T02:17:33.949Z,4.00
2022-12-07T02:20:29.479Z,4.00
2022-12-07T02:23:36.480Z,4.00
2022-12-07T02:26:45.418Z,4.00
2022-12-07T02:29:24.025Z,4.00
2022-12-07T02:32:08.965Z,4.00
2022-12-07T02:34:49.535Z,4.00
2022-12-07T02:37:31.155Z,4.00
2022-12-07T02:40:06.150Z,4.00
2022-12-07T02:42:41.872Z,4.00
2022-12-07T02:45:19.002Z,4.00
2022-12-07T02:47:50.657Z,4.00
2022-12-07T02:50:21.608Z,4.00
2022-12-07T02:52:50.091Z,4.00
2022-12-07T02:55:24.657Z,4.00
2022-12-07T02:58:16.752Z,4.00
2022-12-07T03:01:02.236Z,4.00
2022-12-07T03:03:31.532Z,3.90
2022-12-07T03:06:18.378Z,3.90
2022-12-07T03:08:57.047Z,3.90
2022-12-07T03:11:38.032Z,3.90
2022-12-07T03:14:17.314Z,3.90
2022-12-07T03:16:55.322Z,3.90
2022-12-07T03:19:27.985Z,3.90
2022-12-07T03:22:02.460Z,3.80
2022-12-07T03:24:38.785Z,3.70
2022-12-07T03:27:14.227Z,3.60
2022-12-07T03:29:51.314Z,3.50
2022-12-07T03:32:28.598Z,3.40
2022-12-07T03:35:05.375Z,3.30
2022-12-07T03:37:39.270Z,3.30
2022-12-07T03:40:19.623Z,3.20
2022-12-07T03:42:48.966Z,3.20
2022-12-07T03:45:18.711Z,3.20
2022-12-07T03:48:02.101Z,3.20
2022-12-07T03:50:36.468Z,3.20
2022-12-07T03:53:13.579Z,3.20
2022-12-07T03:55:45.909Z,3.20
2022-12-07T03:58:18.784Z,3.20
2022-12-07T04:00:49.039Z,3.20
2022-12-07T04:03:18.971Z,3.20
2022-12-07T04:05:47.664Z,3.10
2022-12-07T04:08:15.835Z,3.00
2022-12-07T04:10:44.056Z,2.90
2022-12-07T04:13:12.224Z,2.80
2022-12-07T04:15:40.366Z,2.70
2022-12-07T04:18:08.555Z,2.60
2022-12-07T04:20:38.175Z,2.60
2022-12-07T04:23:06.349Z,2.50
2022-12-07T04:25:34.494Z,2.40
2022-12-07T04:28:02.613Z,2.30
2022-12-07T04:30:30.751Z,2.20
2022-12-07T04:32:58.945Z,2.20
2022-12-07T04:35:27.138Z,2.10
2022-12-07T04:37:56.641Z,2.00
2022-12-07T04:40:24.837Z,2.00
2022-12-07T04:42:52.943Z,2.00
2022-12-07T04:45:21.225Z,1.90
2022-12-07T04:47:49.362Z,1.90
2022-12-07T04:50:17.567Z,1.90
2022-12-07T04:52:45.652Z,1.90
2022-12-07T04:55:15.131Z,1.90
2022-12-07T04:57:43.271Z,1.90
2022-12-07T05:00:12.906Z,2.00
2022-12-07T05:02:40.989Z,2.00
2022-12-07T05:05:09.990Z,2.10
2022-12-07T05:07:38.246Z,2.10
2022-12-07T05:10:08.483Z,2.10
2022-12-07T05:12:38.401Z,2.10
2022-12-07T05:15:07.689Z,2.10
2022-12-07T05:17:35.838Z,2.20
2022-12-07T05:20:04.674Z,2.20
2022-12-07T05:22:33.112Z,2.20
2022-12-07T05:25:01.245Z,2.30
2022-12-07T05:27:29.371Z,2.30
2022-12-07T05:29:58.939Z,2.30
2022-12-07T05:32:27.200Z,2.40
2022-12-07T05:34:55.796Z,2.40
2022-12-07T05:37:24.106Z,2.50
2022-12-07T05:39:52.235Z,2.50
2022-12-07T05:42:20.361Z,2.50
2022-12-07T05:44:48.947Z,2.60
2022-12-07T05:47:18.718Z,2.60
2022-12-07T05:49:46.860Z,2.60
2022-12-07T05:52:16.179Z,2.60
2022-12-07T05:54:44.340Z,2.70
2022-12-07T05:57:12.568Z,2.70
2022-12-07T05:59:39.714Z,2.70
2022-12-07T06:02:11.867Z,2.70
2022-12-07T06:04:43.907Z,2.80
2022-12-07T06:07:15.800Z,2.80
2022-12-07T06:09:44.123Z,2.80
2022-12-07T06:12:32.515Z,2.80
2022-12-07T06:15:00.711Z,2.80
2022-12-07T06:17:28.904Z,2.80
2022-12-07T06:19:58.462Z,2.90
2022-12-07T06:22:26.545Z,2.90
2022-12-07T06:24:54.800Z,2.90
2022-12-07T06:27:23.059Z,2.90
2022-12-07T06:29:51.190Z,2.90
2022-12-07T06:32:19.358Z,2.90
2022-12-07T06:34:48.406Z,2.90
2022-12-07T06:37:17.889Z,2.90
2022-12-07T06:39:46.546Z,2.90
2022-12-07T06:42:14.698Z,2.90
2022-12-07T06:44:42.875Z,2.90
2022-12-07T06:47:39.482Z,3.00
2022-12-07T06:50:00.810Z,2.90
2022-12-07T06:52:30.728Z,3.00
2022-12-07T06:54:59.651Z,3.00
2022-12-07T06:57:27.833Z,3.00
2022-12-07T06:59:56.055Z,3.00
2022-12-07T07:02:24.308Z,3.00
2022-12-07T07:04:52.490Z,3.10
2022-12-07T07:07:20.567Z,3.10
2022-12-07T07:09:50.032Z,3.10
2022-12-07T07:12:18.182Z,3.10
2022-12-07T07:14:46.369Z,3.10
2022-12-07T07:17:14.506Z,3.20
2022-12-07T07:19:42.617Z,3.20
2022-12-07T07:22:10.735Z,3.20
2022-12-07T07:24:39.037Z,3.20
2022-12-07T07:27:08.719Z,3.20
2022-12-07T07:29:36.920Z,3.30
2022-12-07T07:32:07.011Z,3.30
2022-12-07T07:34:35.364Z,3.30
2022-12-07T07:37:03.598Z,3.30
2022-12-07T07:39:31.772Z,3.40
2022-12-07T07:41:59.965Z,3.40
2022-12-07T07:44:35.017Z,3.40
2022-12-07T07:47:04.375Z,3.50
2022-12-07T07:49:32.626Z,3.50
2022-12-07T07:52:01.102Z,3.60
2022-12-07T07:54:29.733Z,3.60
2022-12-07T07:56:57.941Z,3.60
2022-12-07T07:59:26.786Z,3.70
2022-12-07T08:01:56.370Z,3.70
2022-12-07T08:04:24.732Z,3.70
2022-12-07T08:06:52.939Z,3.80
2022-12-07T08:09:21.449Z,3.80
2022-12-07T08:11:49.619Z,3.80
2022-12-07T08:14:17.861Z,3.90
2022-12-07T08:16:45.995Z,3.90
2022-12-07T08:19:15.499Z,4.00
2022-12-07T08:21:43.705Z,4.10
2022-12-07T08:24:11.835Z,4.10
2022-12-07T08:26:40.090Z,4.20
2022-12-07T08:29:08.316Z,4.20
2022-12-07T08:31:37.178Z,4.30
2022-12-07T08:34:05.422Z,4.30
2022-12-07T08:36:35.040Z,4.40
2022-12-07T08:41:51.320Z,4.50
2022-12-07T08:44:19.435Z,4.50
2022-12-07T08:46:52.774Z,4.60
2022-12-07T08:49:26.232Z,4.60
2022-12-07T08:51:57.028Z,4.70
2022-12-07T08:54:25.643Z,4.80
2022-12-07T08:56:59.470Z,4.90
2022-12-07T08:59:29.857Z,4.90
2022-12-07T09:01:58.267Z,4.90
2022-12-07T09:04:26.563Z,5.00
2022-12-07T09:06:57.312Z,5.00
2022-12-07T09:09:25.576Z,5.10
2022-12-07T09:11:53.791Z,5.10
2022-12-07T09:14:22.108Z,5.20
2022-12-07T09:16:50.454Z,5.20
2022-12-07T09:19:18.686Z,5.20
2022-12-07T09:21:47.014Z,5.20
2022-12-07T09:24:16.517Z,5.20
2022-12-07T09:26:45.414Z,5.20
2022-12-07T09:29:13.599Z,5.30
2022-12-07T09:31:42.398Z,5.20
2022-12-07T09:34:10.644Z,5.20
2022-12-07T09:36:38.925Z,5.20
2022-12-07T09:39:07.396Z,5.20
2022-12-07T09:41:41.503Z,5.20
2022-12-07T09:44:15.131Z,5.10
2022-12-07T09:46:45.758Z,5.10
2022-12-07T09:49:20.329Z,5.10
2022-12-07T09:51:49.234Z,5.10
2022-12-07T09:54:18.843Z,5.20
2022-12-07T09:56:48.453Z,5.20
2022-12-07T09:59:20.939Z,5.20
2022-12-07T10:01:51.797Z,5.20
2022-12-07T10:04:24.220Z,5.10
2022-12-07T10:06:53.036Z,5.20
2022-12-07T10:09:25.912Z,5.20
2022-12-07T10:12:07.527Z,5.20
2022-12-07T10:17:37.877Z,5.20
2022-12-07T10:20:21.332Z,5.20
2022-12-07T10:23:05.511Z,5.20
2022-12-07T10:25:36.969Z,5.20
2022-12-07T10:28:41.805Z,5.20
2022-12-07T10:31:20.959Z,5.20
2022-12-07T10:33:55.029Z,5.20
2022-12-07T10:36:27.667Z,5.20
2022-12-07T10:39:04.300Z,5.20
2022-12-07T10:41:32.794Z,5.20
2022-12-07T10:44:02.292Z,5.20
2022-12-07T10:47:19.277Z,5.30
2022-12-07T10:50:31.578Z,5.40
2022-12-07T10:53:39.273Z,5.50
2022-12-07T10:56:38.591Z,5.50
2022-12-07T10:59:44.522Z,5.50
2022-12-07T11:02:36.856Z,5.50
2022-12-07T11:05:18.579Z,5.50
2022-12-07T11:08:01.342Z,5.50
2022-12-07T11:10:43.512Z,5.50
2022-12-07T11:13:28.910Z,5.50
2022-12-07T11:16:25.883Z,5.40
2022-12-07T11:19:36.208Z,5.40
2022-12-07T11:22:15.137Z,5.40
2022-12-07T11:24:52.335Z,5.50
2022-12-07T11:27:39.140Z,5.50
2022-12-07T11:30:21.750Z,5.50
2022-12-07T11:33:13.995Z,5.50
2022-12-07T11:35:56.680Z,5.50
2022-12-07T11:38:30.660Z,5.60
2022-12-07T11:41:14.618Z,5.60
2022-12-07T11:44:03.778Z,5.60
2022-12-07T11:46:53.037Z,5.70
2022-12-07T11:49:34.029Z,5.70
2022-12-07T11:52:08.237Z,5.80
2022-12-07T11:54:43.021Z,5.80
2022-12-07T11:57:21.924Z,5.90
2022-12-07T11:59:58.890Z,6.00
2022-12-07T12:02:38.501Z,6.10
2022-12-07T12:05:19.027Z,6.20
2022-12-07T12:10:58.138Z,6.20
2022-12-07T12:17:51.179Z,6.20
2022-12-07T12:20:30.266Z,6.20
2022-12-07T12:23:07.877Z,6.20
2022-12-07T12:25:44.551Z,6.30
2022-12-07T12:28:26.226Z,6.30
2022-12-07T12:31:15.666Z,6.30
2022-12-07T12:33:50.229Z,6.30
2022-12-07T12:36:27.589Z,6.30
2022-12-07T12:39:19.701Z,6.30
2022-12-07T12:42:09.135Z,6.40
2022-12-07T12:45:07.107Z,6.30
2022-12-07T12:47:53.776Z,6.30
2022-12-07T12:50:26.369Z,6.30
2022-12-07T12:53:05.851Z,6.30
2022-12-07T12:56:14.678Z,6.30
2022-12-07T12:58:48.316Z,6.30
2022-12-07T13:01:49.315Z,6.20
2022-12-07T13:04:52.732Z,6.10
2022-12-07T13:08:07.063Z,6.00
2022-12-07T13:10:46.523Z,6.00
2022-12-07T13:13:37.703Z,6.00
2022-12-07T13:16:51.721Z,5.90
2022-12-07T13:20:03.108Z,5.90
2022-12-07T13:22:48.878Z,5.80
2022-12-07T13:25:33.527Z,5.70
2022-12-07T13:28:12.756Z,5.70
2022-12-07T13:30:51.749Z,5.60
2022-12-07T13:33:21.089Z,5.60
2022-12-07T13:35:49.210Z,5.50
2022-12-07T13:38:30.324Z,5.50
2022-12-07T13:41:17.025Z,5.50
2022-12-07T13:43:49.795Z,5.50
2022-12-07T13:46:21.210Z,5.50
2022-12-07T13:48:51.308Z,5.40
2022-12-07T13:51:23.997Z,5.40
2022-12-07T13:53:55.596Z,5.40
2022-12-07T13:56:33.716Z,5.40
2022-12-07T13:59:02.133Z,5.40
2022-12-07T14:01:33.244Z,5.40
2022-12-07T14:04:33.209Z,5.40
2022-12-07T14:07:20.596Z,5.40
2022-12-07T14:10:02.063Z,5.40
2022-12-07T14:12:33.904Z,5.40
2022-12-07T14:15:05.399Z,5.40
2022-12-07T14:17:33.929Z,5.40
2022-12-07T14:20:03.480Z,5.30
2022-12-07T14:22:35.821Z,5.30
2022-12-07T14:25:23.383Z,5.30
2022-12-07T14:27:58.998Z,5.30
2022-12-07T14:30:30.008Z,5.30
2022-12-07T14:33:02.472Z,5.30
2022-12-07T14:35:32.125Z,5.40
2022-12-07T14:38:00.816Z,5.30
2022-12-07T14:40:31.386Z,5.30
2022-12-07T14:43:07.652Z,5.30
2022-12-07T14:45:36.068Z,5.30
2022-12-07T14:53:51.371Z,5.20
2022-12-07T14:56:23.485Z,5.20
2022-12-07T14:58:53.117Z,5.20
2022-12-07T15:01:21.611Z,5.20
2022-12-07T15:03:49.978Z,5.20
2022-12-07T15:06:20.410Z,5.10
2022-12-07T15:08:48.747Z,5.10
2022-12-07T15:11:18.472Z,5.10
2022-12-07T15:14:04.621Z,5.10
2022-12-07T15:17:06.276Z,5.10
2022-12-07T15:19:28.308Z,5.10
2022-12-07T15:21:58.190Z,5.00
2022-12-07T15:24:26.548Z,5.00
2022-12-07T15:26:55.049Z,5.00
2022-12-07T15:29:24.075Z,5.00
2022-12-07T15:31:57.032Z,5.00
2022-12-07T15:34:27.429Z,5.00
2022-12-07T15:36:55.578Z,5.00
2022-12-07T15:39:23.940Z,5.00
2022-12-07T15:41:52.236Z,5.00
2022-12-07T15:44:38.195Z,5.00
2022-12-07T15:47:08.139Z,5.00
2022-12-07T15:49:36.506Z,5.00
2022-12-07T15:52:05.249Z,5.00
2022-12-07T15:54:34.103Z,4.90
2022-12-07T15:57:02.599Z,4.90
2022-12-07T15:59:31.590Z,5.00
2022-12-07T16:01:59.979Z,4.90
2022-12-07T16:04:31.145Z,4.90
2022-12-07T16:06:59.929Z,4.90
2022-12-07T16:09:28.943Z,4.90
2022-12-07T16:12:46.940Z,4.90
2022-12-07T16:15:16.440Z,4.90
2022-12-07T16:17:47.202Z,4.90
2022-12-07T16:20:16.879Z,4.90
2022-12-07T16:22:45.080Z,4.90
2022-12-07T16:25:13.264Z,4.90
2022-12-07T16:27:41.714Z,4.90
2022-12-07T16:30:11.190Z,4.90
2022-12-07T16:32:39.354Z,4.90
2022-12-07T16:35:08.158Z,4.90
2022-12-07T16:37:37.675Z,4.90
2022-12-07T16:40:08.025Z,4.90
2022-12-07T16:42:37.103Z,4.90
2022-12-07T16:45:06.900Z,4.90
2022-12-07T16:47:35.220Z,4.90
2022-12-07T16:50:03.422Z,4.90
2022-12-07T16:52:31.612Z,4.80
2022-12-07T16:55:01.595Z,4.80
2022-12-07T16:57:32.838Z,4.80
2022-12-07T17:00:01.063Z,4.80
2022-12-07T17:02:29.350Z,4.80
2022-12-07T17:04:57.488Z,4.80
2022-12-07T17:07:25.696Z,4.70
2022-12-07T17:09:55.274Z,4.70
2022-12-07T17:12:24.837Z,4.70
2022-12-07T17:15:10.711Z,4.70
2022-12-07T17:17:38.862Z,4.60
2022-12-07T17:20:08.783Z,4.60
2022-12-07T17:22:37.028Z,4.60
2022-12-07T17:25:06.462Z,4.60
2022-12-07T17:27:36.236Z,4.50
2022-12-07T17:30:05.179Z,4.60
2022-12-07T17:32:33.385Z,4.50
2022-12-07T17:35:02.207Z,4.50
2022-12-07T17:37:32.243Z,4.50
2022-12-07T17:40:00.694Z,4.50
2022-12-07T17:42:40.169Z,4.50
2022-12-07T17:45:12.275Z,4.50
2022-12-07T17:47:41.305Z,4.40
2022-12-07T17:50:11.230Z,4.40
2022-12-07T17:52:58.227Z,4.40
2022-12-07T17:55:26.847Z,4.40
2022-12-07T17:57:55.041Z,4.30
2022-12-07T18:00:24.881Z,4.30
2022-12-07T18:02:53.199Z,4.30
2022-12-07T18:05:21.381Z,4.30
2022-12-07T18:07:49.561Z,4.30
2022-12-07T18:10:18.258Z,4.30
2022-12-07T18:12:51.829Z,4.30
2022-12-07T18:15:20.694Z,4.30
2022-12-07T18:17:51.851Z,4.30
2022-12-07T18:20:20.001Z,4.30
2022-12-07T18:22:48.173Z,4.30
2022-12-07T18:25:16.479Z,4.40
2022-12-07T18:27:44.643Z,4.40
2022-12-07T18:30:14.204Z,4.40
2022-12-07T18:32:42.362Z,4.40
2022-12-07T18:35:11.923Z,4.40
2022-12-07T18:37:43.529Z,4.40
2022-12-07T18:40:13.432Z,4.40
2022-12-07T18:42:41.552Z,4.40
2022-12-07T18:45:10.733Z,4.30
2022-12-07T18:47:38.892Z,4.30
2022-12-07T18:50:08.909Z,4.30
2022-12-07T18:52:38.578Z,4.30
2022-12-07T18:55:08.236Z,4.30
2022-12-07T18:57:36.383Z,4.30
2022-12-07T19:00:06.676Z,4.30
2022-12-07T19:02:35.625Z,4.30
2022-12-07T19:05:04.459Z,4.30
2022-12-07T19:07:33.190Z,4.30
2022-12-07T19:10:02.847Z,4.30
2022-12-07T19:12:31.138Z,4.30
2022-12-07T19:14:59.455Z,4.30
2022-12-07T19:17:27.802Z,4.30
2022-12-07T19:19:56.062Z,4.30
2022-12-07T19:22:25.015Z,4.30
2022-12-07T19:24:56.585Z,4.30
2022-12-07T19:27:27.149Z,4.20
2022-12-07T19:29:56.188Z,4.30
2022-12-07T19:32:24.911Z,4.30
2022-12-07T19:34:54.456Z,4.20
2022-12-07T19:37:22.860Z,4.20
2022-12-07T19:39:52.140Z,4.30
2022-12-07T19:42:20.522Z,4.20
2022-12-07T19:44:50.187Z,4.20
2022-12-07T19:47:18.549Z,4.20
2022-12-07T19:49:47.251Z,4.20
2022-12-07T19:52:15.873Z,4.30
2022-12-07T19:54:44.066Z,4.20
2022-12-07T19:57:16.005Z,4.20
2022-12-07T19:59:46.379Z,4.30
2022-12-07T20:02:17.215Z,4.20
2022-12-07T20:04:45.822Z,4.20
2022-12-07T20:07:14.137Z,4.20
2022-12-07T20:09:42.624Z,4.20
2022-12-07T20:12:29.429Z,4.20
2022-12-07T20:14:57.786Z,4.20
2022-12-07T20:17:27.435Z,4.10
2022-12-07T20:19:55.760Z,4.10
2022-12-07T20:22:24.289Z,4.10
2022-12-07T20:24:52.561Z,4.10
2022-12-07T20:27:20.811Z,4.10
2022-12-07T20:29:50.649Z,4.10
2022-12-07T20:32:18.827Z,4.00
2022-12-07T20:34:49.416Z,3.90
2022-12-07T20:37:17.649Z,3.90
2022-12-07T20:39:45.840Z,3.80
2022-12-07T20:42:31.550Z,3.80
2022-12-07T20:45:03.294Z,3.80
2022-12-07T20:47:31.860Z,3.70
2022-12-07T20:50:03.524Z,3.70
2022-12-07T20:52:32.530Z,3.70
2022-12-07T20:55:00.909Z,3.60
2022-12-07T20:57:29.293Z,3.60
2022-12-07T21:00:08.885Z,3.60
2022-12-07T21:15:50.616Z,3.60
2022-12-07T21:18:18.880Z,3.60
2022-12-07T21:20:47.015Z,3.60
2022-12-07T21:23:15.195Z,3.60
2022-12-07T21:25:43.401Z,3.60
2022-12-07T21:28:11.505Z,3.60
2022-12-07T21:31:11.122Z,3.60
2022-12-07T21:33:29.783Z,3.60
2022-12-07T21:35:57.949Z,3.70
2022-12-07T21:38:26.434Z,3.70
2022-12-07T21:40:54.554Z,3.70
2022-12-07T21:43:22.818Z,3.70
2022-12-07T21:45:52.750Z,3.70
2022-12-07T21:48:22.354Z,3.80
2022-12-07T21:50:51.839Z,3.70
2022-12-07T21:53:19.947Z,3.80
2022-12-07T21:55:48.173Z,3.80
2022-12-07T21:58:16.435Z,3.80
2022-12-07T22:00:44.587Z,3.80
2022-12-07T22:03:13.822Z,3.70
2022-12-07T22:05:42.102Z,3.80
2022-12-07T22:08:11.628Z,3.70
2022-12-07T22:10:39.885Z,3.80
2022-12-07T22:13:08.046Z,3.70
2022-12-07T22:15:35.257Z,3.70
2022-12-07T22:18:03.459Z,3.80
2022-12-07T22:20:31.595Z,3.70
2022-12-07T22:22:59.928Z,3.70
2022-12-07T22:25:29.374Z,3.70
2022-12-07T22:27:57.532Z,3.70
2022-12-07T22:30:25.700Z,3.70
2022-12-07T22:32:53.892Z,3.70
2022-12-07T22:35:23.041Z,3.70
2022-12-07T22:37:51.134Z,3.70
2022-12-07T22:40:19.409Z,3.70
2022-12-07T22:42:48.891Z,3.70
2022-12-07T22:45:18.054Z,3.60
2022-12-07T22:47:46.554Z,3.60
2022-12-07T22:50:14.656Z,3.60
2022-12-07T22:52:42.875Z,3.60
2022-12-07T22:55:11.751Z,3.60
2022-12-07T22:57:39.845Z,3.60
2022-12-07T23:00:11.419Z,3.60
2022-12-07T23:02:39.643Z,3.60
2022-12-07T23:05:08.960Z,3.60
2022-12-07T23:07:37.238Z,3.70
2022-12-07T23:10:07.275Z,3.70
2022-12-07T23:12:52.166Z,3.70
2022-12-07T23:15:21.731Z,3.70
2022-12-07T23:17:49.947Z,3.70
2022-12-07T23:20:18.389Z,3.70
2022-12-07T23:22:46.572Z,3.80
2022-12-07T23:25:14.712Z,3.70
2022-12-07T23:27:42.875Z,3.70
2022-12-07T23:30:12.132Z,3.70
2022-12-07T23:32:41.625Z,3.70
2022-12-07T23:35:10.280Z,3.70
2022-12-07T23:37:38.469Z,3.70
2022-12-07T23:40:09.045Z,3.80
2022-12-07T23:42:37.262Z,3.80
2022-12-07T23:45:06.422Z,3.80
2022-12-07T23:47:34.631Z,3.80
2022-12-07T23:50:04.678Z,3.80
2022-12-07T23:52:32.911Z,3.80
2022-12-07T23:55:01.245Z,3.80
2022-12-07T23:57:30.272Z,3.80
2022-12-07T23:59:58.400Z,3.80
